Time;durP1;ratioP1;P1;durP2;ratioP2;P2;SDS_P1;SDS_P2;PMS_P1;PMS_P2;Temp;Humidity;BMP_temperature;BMP_pressure;BME280_temperature;BME280_humidity;BME280_pressure;Samples;Min_cycle;Max_cycle;Signal;HPM_P1;HPM_P2
2022/06/28 00:02:00;;;;;;;13.85;8.70;;;;;;;25.90;56.52;100259.70;3647223;79;99033;-77
2022/06/28 00:07:01;;;;;;;9.43;7.17;;;;;;;25.91;57.26;100254.85;3650389;79;31450;-77
2022/06/28 00:12:03;;;;;;;12.45;7.70;;;;;;;25.92;57.28;100254.99;3643359;79;99072;-77
2022/06/28 00:17:04;;;;;;;14.10;8.25;;;;;;;25.87;57.40;100251.41;3655362;79;99455;-77
2022/06/28 00:22:05;;;;;;;13.35;8.68;;;;;;;25.82;57.38;100239.42;3643158;79;98992;-77
2022/06/28 00:27:06;;;;;;;12.10;8.93;;;;;;;25.72;57.88;100240.77;3645803;78;98142;-77
2022/06/28 00:32:08;;;;;;;11.90;7.85;;;;;;;25.66;57.96;100246.94;3655455;79;99159;-77
2022/06/28 00:37:09;;;;;;;13.80;8.80;;;;;;;25.61;58.77;100246.97;3657471;79;32238;-77
2022/06/28 00:42:10;;;;;;;12.70;8.08;;;;;;;25.61;59.28;100256.06;3630443;79;99282;-77
2022/06/28 00:47:13;;;;;;;13.30;9.48;;;;;;;25.59;59.25;100256.55;3637238;79;98953;-77
2022/06/28 00:52:14;;;;;;;11.95;8.78;;;;;;;25.52;58.88;100263.97;3627882;80;99012;-77
2022/06/28 00:57:15;;;;;;;13.85;10.08;;;;;;;25.44;59.15;100264.19;3619029;79;99373;-77
2022/06/28 01:02:16;;;;;;;11.12;9.33;;;;;;;25.44;59.56;100263.42;3630902;80;100823;-77
2022/06/28 01:07:17;;;;;;;13.00;8.95;;;;;;;25.35;59.51;100263.48;3645228;80;31049;-77
2022/06/28 01:12:18;;;;;;;12.58;9.58;;;;;;;25.32;60.24;100265.84;3615681;80;98736;-77
2022/06/28 01:17:19;;;;;;;11.93;9.40;;;;;;;25.32;60.24;100280.72;3619560;80;98942;-77
2022/06/28 01:22:21;;;;;;;15.28;9.68;;;;;;;25.32;60.89;100280.72;3627430;80;99064;-77
2022/06/28 01:27:23;;;;;;;10.70;8.83;;;;;;;25.32;60.98;100280.72;3633756;80;99036;-77
2022/06/28 01:32:26;;;;;;;12.15;8.88;;;;;;;25.26;60.99;100274.81;3629015;80;99078;-77
2022/06/28 01:37:28;;;;;;;11.03;8.80;;;;;;;25.26;61.73;100280.45;3633479;80;32897;-77
2022/06/28 01:42:30;;;;;;;12.82;9.00;;;;;;;25.27;61.80;100291.23;3627206;80;99218;-77
2022/06/28 01:47:35;;;;;;;11.68;9.53;;;;;;;25.22;61.53;100297.50;3635397;79;99118;-77
2022/06/28 01:52:41;;;;;;;11.35;8.85;;;;;;;25.22;61.97;100298.15;3628071;80;99429;-77
2022/06/28 01:57:42;;;;;;;12.90;9.73;;;;;;;25.19;62.56;100316.00;3635078;79;99042;-77
2022/06/28 02:02:43;;;;;;;13.50;8.95;;;;;;;25.13;62.30;100299.61;3627283;80;98997;-76
2022/06/28 02:07:49;;;;;;;14.60;9.53;;;;;;;25.05;62.73;100296.36;3611473;80;32904;-77
2022/06/28 02:12:51;;;;;;;16.23;9.98;;;;;;;25.00;62.22;100294.20;3628472;80;98669;-77
2022/06/28 02:17:52;;;;;;;14.33;9.93;;;;;;;24.97;62.85;100303.62;3597795;81;99193;-77
2022/06/28 02:22:53;;;;;;;14.25;10.32;;;;;;;24.91;62.88;100313.19;3618989;80;99383;-77
2022/06/28 02:27:54;;;;;;;15.00;10.55;;;;;;;24.91;63.54;100325.22;3637293;80;99220;-77
2022/06/28 02:32:55;;;;;;;16.55;11.05;;;;;;;24.90;63.01;100346.83;3625342;80;99310;-78
2022/06/28 02:43:15;;;;;;;15.13;9.90;;;;;;;24.42;63.44;100383.08;3651562;79;98945;-78
2022/06/28 02:48:17;;;;;;;13.15;10.00;;;;;;;24.21;64.22;100396.70;3650282;79;98909;-78
2022/06/28 02:53:18;;;;;;;13.72;10.40;;;;;;;24.02;65.68;100412.00;3653444;79;99305;-78
2022/06/28 02:58:19;;;;;;;14.58;11.10;;;;;;;23.83;67.25;100437.13;3663270;79;99217;-78
2022/06/28 03:03:20;;;;;;;18.05;14.98;;;;;;;23.63;69.20;100445.99;3654875;79;99297;-79
2022/06/28 03:08:21;;;;;;;21.02;17.98;;;;;;;23.44;71.08;100447.81;3660159;79;99435;-78
2022/06/28 03:13:22;;;;;;;32.07;20.60;;;;;;;23.30;73.40;100453.39;3639492;79;99357;-78
2022/06/28 03:18:23;;;;;;;30.55;23.32;;;;;;;23.21;74.59;100458.20;3643419;79;98974;-77
2022/06/28 03:23:24;;;;;;;30.82;25.08;;;;;;;23.15;76.22;100470.61;3655786;79;99386;-80
2022/06/28 03:28:25;;;;;;;35.85;27.77;;;;;;;23.08;76.88;100477.92;3653778;79;99321;-79
2022/06/28 03:33:26;;;;;;;40.28;29.52;;;;;;;23.04;77.44;100481.48;3654361;79;99190;-78
2022/06/28 03:38:27;;;;;;;31.80;25.70;;;;;;;23.01;78.03;100477.41;3662871;79;99554;-79
2022/06/28 03:43:28;;;;;;;36.60;28.67;;;;;;;23.00;78.90;100487.84;3656858;79;98908;-78
2022/06/28 03:48:29;;;;;;;31.70;25.05;;;;;;;22.99;79.18;100486.28;3640361;79;99477;-79
2022/06/28 03:53:30;;;;;;;39.42;27.10;;;;;;;22.97;79.43;100498.60;3658925;79;99670;-79
2022/06/28 03:58:32;;;;;;;30.92;24.32;;;;;;;22.99;79.28;100507.98;3662071;79;99544;-79
2022/06/28 04:03:34;;;;;;;30.95;22.07;;;;;;;23.04;78.77;100515.16;3656325;79;99272;-79
2022/06/28 04:08:35;;;;;;;24.20;19.32;;;;;;;22.99;79.03;100512.19;3647992;79;99281;-81
2022/06/28 04:13:38;;;;;;;25.57;17.60;;;;;;;22.94;78.75;100518.39;3646045;79;99322;-78
2022/06/28 04:18:41;;;;;;;25.92;17.52;;;;;;;23.00;78.24;100517.95;3661341;79;99020;-79
2022/06/28 04:23:43;;;;;;;25.70;17.50;;;;;;;23.05;77.88;100512.52;3649771;79;99180;-79
2022/06/28 04:28:44;;;;;;;23.35;17.15;;;;;;;23.09;77.69;100518.78;3669582;79;99633;-79
2022/06/28 04:33:45;;;;;;;23.70;16.62;;;;;;;23.11;77.08;100530.33;3642865;80;99158;-80
2022/06/28 04:38:46;;;;;;;18.90;14.95;;;;;;;23.10;77.00;100517.53;3642629;80;99117;-79
2022/06/28 04:43:47;;;;;;;19.67;13.50;;;;;;;23.11;76.63;100523.31;3662831;79;99060;-80
2022/06/28 04:48:49;;;;;;;21.37;14.87;;;;;;;23.18;76.32;100531.51;3662081;79;98893;-80
2022/06/28 04:53:50;;;;;;;17.17;11.63;;;;;;;23.25;75.91;100528.41;3643960;79;99018;-80
2022/06/28 04:58:51;;;;;;;17.00;13.30;;;;;;;23.26;75.64;100531.38;3661975;79;99221;-80
2022/06/28 05:03:52;;;;;;;18.65;12.78;;;;;;;23.33;75.30;100525.48;3655189;79;99279;-81
2022/06/28 05:08:56;;;;;;;16.97;11.22;;;;;;;23.40;74.72;100541.27;3660715;79;99480;-78
2022/06/28 05:13:57;;;;;;;15.63;10.82;;;;;;;23.44;74.33;100542.69;3643743;79;98893;-79
2022/06/28 05:18:58;;;;;;;16.00;9.65;;;;;;;23.59;74.01;100567.58;3646552;79;32461;-78
2022/06/28 05:23:59;;;;;;;16.17;9.38;;;;;;;23.60;73.48;100604.91;3647677;79;98790;-80
2022/06/28 05:29:01;;;;;;;16.57;8.88;;;;;;;23.56;73.12;100670.28;3659822;79;99023;-78
2022/06/28 05:34:03;;;;;;;15.05;8.18;;;;;;;23.29;73.00;100727.08;3645954;79;99055;-78
2022/06/28 05:39:05;;;;;;;11.22;7.20;;;;;;;23.12;73.19;100661.69;3650716;79;99288;-79
2022/06/28 05:44:06;;;;;;;9.73;6.65;;;;;;;23.11;73.34;100634.21;3623233;79;99050;-77
2022/06/28 05:49:09;;;;;;;13.80;6.95;;;;;;;23.14;73.73;100620.68;3633271;80;31668;-79
2022/06/28 05:54:10;;;;;;;10.13;6.67;;;;;;;23.21;73.57;100591.59;3616357;80;99177;-79
2022/06/28 05:59:11;;;;;;;10.00;6.58;;;;;;;23.18;73.50;100535.72;3626609;80;99367;-79
2022/06/28 06:04:12;;;;;;;11.30;7.03;;;;;;;23.09;73.85;100478.07;3623861;80;99011;-82
2022/06/28 06:09:15;;;;;;;12.40;7.78;;;;;;;22.86;74.66;100444.90;3617072;80;98204;-81
2022/06/28 06:14:16;;;;;;;12.28;8.35;;;;;;;22.61;75.82;100431.03;3628183;79;99116;-82
2022/06/28 06:19:18;;;;;;;14.15;7.90;;;;;;;22.44;76.93;100407.23;3654969;79;26262;-82
2022/06/28 06:24:19;;;;;;;11.93;7.75;;;;;;;22.26;77.64;100414.10;3581015;79;98806;-81
2022/06/28 06:29:20;;;;;;;10.58;7.65;;;;;;;22.26;77.81;100458.97;3578861;81;98336;-81
2022/06/28 06:34:21;;;;;;;12.80;8.28;;;;;;;22.36;77.76;100503.28;3607436;79;99115;-82
2022/06/28 06:39:22;;;;;;;14.05;8.20;;;;;;;22.42;77.83;100540.11;3655338;79;99267;-81
2022/06/28 06:44:25;;;;;;;11.78;7.53;;;;;;;22.38;78.29;100566.09;3648851;79;99379;-81
2022/06/28 06:49:26;;;;;;;13.80;7.92;;;;;;;22.40;78.80;100562.84;3672062;79;32329;-81
2022/06/28 06:54:27;;;;;;;13.55;8.83;;;;;;;22.51;79.11;100579.47;3656233;79;99087;-81
2022/06/28 06:59:28;;;;;;;14.98;9.25;;;;;;;22.59;78.98;100616.48;3663743;79;98892;-82
2022/06/28 07:04:30;;;;;;;14.25;9.70;;;;;;;22.50;79.14;100636.05;3658532;79;99125;-82
2022/06/28 07:09:30;;;;;;;15.13;10.35;;;;;;;22.27;80.34;100672.23;3653001;79;98970;-82
2022/06/28 07:14:32;;;;;;;14.07;10.50;;;;;;;22.00;81.61;100683.12;3656857;80;98839;-82
2022/06/28 07:19:33;;;;;;;16.73;10.95;;;;;;;21.83;82.75;100699.88;3643707;79;31622;-81
2022/06/28 07:24:34;;;;;;;13.30;10.28;;;;;;;21.82;84.09;100715.72;3641495;79;99426;-82
2022/06/28 07:29:35;;;;;;;16.40;12.37;;;;;;;21.77;84.62;100732.48;3672041;79;98231;-85
2022/06/28 07:34:36;;;;;;;13.10;9.43;;;;;;;21.80;86.38;100753.98;3644321;79;99159;-81
2022/06/28 07:39:38;;;;;;;13.48;9.68;;;;;;;21.84;85.52;100768.69;3664679;79;98999;-81
2022/06/28 07:44:39;;;;;;;11.53;8.38;;;;;;;21.94;85.18;100776.00;3610602;79;99043;-80
2022/06/28 07:54:59;;;;;;;12.70;8.73;;;;;;;22.08;85.03;100786.00;3594887;80;98915;-79
2022/06/28 08:00:01;;;;;;;11.30;8.10;;;;;;;22.23;84.59;100797.73;3632703;80;98382;-80
2022/06/28 08:05:03;;;;;;;13.40;8.95;;;;;;;22.35;84.22;100815.81;3682183;77;98160;-80
2022/06/28 08:10:06;;;;;;;11.68;8.23;;;;;;;22.46;83.90;100822.67;3692578;78;99364;-80
2022/06/28 08:15:08;;;;;;;13.60;9.78;;;;;;;22.56;83.22;100832.78;3653425;79;98846;-80
2022/06/28 08:20:10;;;;;;;14.90;8.48;;;;;;;22.55;83.00;100836.06;3682535;79;99029;-80
2022/06/28 08:25:12;;;;;;;15.35;9.23;;;;;;;22.49;82.68;100841.43;3663226;79;98569;-78
2022/06/28 08:30:13;;;;;;;13.38;9.55;;;;;;;22.51;82.54;100837.55;3677743;79;98884;-80
2022/06/28 08:35:14;;;;;;;13.55;9.55;;;;;;;22.62;82.48;100835.83;3649255;79;99052;-79
2022/06/28 08:40:16;;;;;;;12.10;9.65;;;;;;;22.92;82.89;100830.42;3669472;79;98651;-79
2022/06/28 08:45:17;;;;;;;14.33;9.45;;;;;;;23.31;83.00;100811.66;3685648;78;99445;-79
2022/06/28 08:50:34;;;;;;;11.75;7.95;;;;;;;23.64;81.61;100821.30;3674851;78;99046;-79
2022/06/28 08:55:36;;;;;;;10.68;7.83;;;;;;;24.00;80.64;100833.47;3661441;80;98447;-79
2022/06/28 09:00:37;;;;;;;15.32;8.25;;;;;;;24.50;80.08;100829.70;3638872;80;99243;-79
2022/06/28 09:05:38;;;;;;;9.53;6.17;;;;;;;25.09;79.46;100819.45;3625551;79;98460;-79
2022/06/28 09:10:39;;;;;;;10.72;6.37;;;;;;;25.85;77.51;100825.78;3630351;80;98997;-79
2022/06/28 09:15:55;;;;;;;10.85;6.08;;;;;;;26.81;76.08;100825.06;3607932;80;99068;-80
2022/06/28 09:20:57;;;;;;;8.35;5.33;;;;;;;27.91;73.88;100823.85;3624598;78;99539;-80
2022/06/28 09:26:06;;;;;;;7.55;4.42;;;;;;;28.70;69.76;100825.48;3612070;80;99244;-79
2022/06/28 09:31:25;;;;;;;8.95;4.37;;;;;;;29.19;66.66;100828.30;3631822;80;26265;-78
2022/06/28 09:36:28;;;;;;;12.82;5.05;;;;;;;29.48;63.94;100829.59;3637091;80;98656;-79
2022/06/28 09:41:30;;;;;;;9.38;5.62;;;;;;;29.63;62.25;100840.23;3635005;80;98669;-78
2022/06/28 09:46:33;;;;;;;8.70;5.78;;;;;;;29.63;60.57;100843.06;3619598;80;98815;-81
2022/06/28 09:51:37;;;;;;;9.38;5.87;;;;;;;29.43;59.18;100851.58;3609548;80;108214;-78
2022/06/28 09:56:42;;;;;;;8.88;5.87;;;;;;;28.90;58.36;100858.92;3670982;79;98999;-79
2022/06/28 10:01:43;;;;;;;9.88;5.75;;;;;;;28.42;59.45;100860.45;3653474;79;98541;-78
2022/06/28 10:06:45;;;;;;;8.40;5.75;;;;;;;28.18;59.62;100863.97;3650726;79;99174;-78
2022/06/28 10:17:40;;;;;;;6.65;4.65;;;;;;;28.04;59.55;100869.62;3653428;79;98774;-80
2022/06/28 10:22:41;;;;;;;7.43;5.37;;;;;;;27.97;59.79;100868.59;3646561;79;99188;-79
2022/06/28 10:27:48;;;;;;;7.28;4.90;;;;;;;27.86;59.48;100862.09;3641533;79;98881;-80
2022/06/28 10:32:55;;;;;;;8.35;4.90;;;;;;;27.87;59.26;100867.90;3640888;79;99110;-79
2022/06/28 10:38:13;;;;;;;9.20;4.92;;;;;;;27.98;58.69;100868.73;3649027;80;26412;-79
2022/06/28 10:43:27;;;;;;;7.50;4.47;;;;;;;27.96;58.58;100860.72;3649724;79;99108;-79
2022/06/28 10:48:29;;;;;;;8.30;4.55;;;;;;;27.95;58.36;100867.66;3673267;78;98599;-79
2022/06/28 10:54:01;;;;;;;6.80;4.45;;;;;;;28.00;58.11;100864.80;3670237;79;98816;-80
2022/06/28 10:59:10;;;;;;;8.18;5.03;;;;;;;27.95;57.71;100877.55;3679931;79;98847;-80
2022/06/28 11:04:22;;;;;;;10.23;4.85;;;;;;;27.99;57.74;100878.16;3669601;78;98972;-78
2022/06/28 11:09:51;;;;;;;6.92;3.98;;;;;;;28.09;57.41;100885.92;3679936;78;99496;-78
2022/06/28 11:15:02;;;;;;;8.70;3.87;;;;;;;28.00;56.38;100883.20;3674726;78;99001;-78
2022/06/28 11:20:14;;;;;;;7.37;3.47;;;;;;;27.87;56.10;100886.29;3687001;78;98792;-78
2022/06/28 11:25:24;;;;;;;6.05;3.42;;;;;;;27.98;56.26;100892.17;3677312;79;98385;-77
2022/06/28 11:30:28;;;;;;;4.60;3.12;;;;;;;28.30;56.10;100890.44;3679348;78;97867;-78
2022/06/28 11:35:30;;;;;;;7.47;4.03;;;;;;;28.56;55.72;100897.87;3669814;78;99016;-77
2022/06/28 11:40:44;;;;;;;6.20;3.92;;;;;;;28.63;54.63;100896.72;3676116;78;99165;-78
2022/06/28 11:45:50;;;;;;;5.20;3.42;;;;;;;28.78;54.87;100898.25;3658148;79;98861;-77
2022/06/28 11:50:54;;;;;;;6.40;3.37;;;;;;;29.05;54.76;100904.27;3665657;78;97894;-78
2022/06/28 11:55:58;;;;;;;5.90;2.98;;;;;;;29.22;53.42;100903.25;3657944;79;98765;-77
2022/06/28 12:01:17;;;;;;;5.23;3.20;;;;;;;29.27;52.04;100905.34;3667083;79;26413;-78
2022/06/28 12:06:31;;;;;;;6.72;3.27;;;;;;;29.18;52.50;100907.54;3657991;79;98726;-78
2022/06/28 12:11:44;;;;;;;5.27;3.00;;;;;;;29.47;52.59;100906.04;3656616;79;98737;-77
2022/06/28 12:16:53;;;;;;;6.25;3.15;;;;;;;29.85;52.65;100914.30;3664521;79;99115;-79
2022/06/28 12:22:14;;;;;;;5.47;2.92;;;;;;;30.57;51.91;100914.45;3660791;78;99254;-79
2022/06/28 12:27:19;;;;;;;5.75;2.98;;;;;;;31.27;50.87;100925.53;3682520;78;98908;-78
2022/06/28 12:32:21;;;;;;;5.00;3.05;;;;;;;31.64;49.86;100934.14;3667087;79;99285;-78
2022/06/28 12:37:23;;;;;;;4.55;2.58;;;;;;;31.91;47.72;100939.84;3670302;80;26224;-78
2022/06/28 12:42:27;;;;;;;5.20;2.70;;;;;;;31.97;46.39;100940.00;3664090;79;99011;-77
2022/06/28 12:47:34;;;;;;;;;;;;;;;32.09;46.49;100942.26;3614084;80;98699;-77
2022/06/28 12:52:37;;;;;;;4.50;2.55;;;;;;;32.20;44.68;100949.41;3596853;80;85170;-78
2022/06/28 12:57:39;;;;;;;4.47;2.60;;;;;;;31.89;46.06;100953.83;3589022;81;99266;-77
2022/06/28 13:02:41;;;;;;;4.28;2.72;;;;;;;31.92;46.10;100947.12;3591742;80;99201;-77
2022/06/28 13:07:44;;;;;;;3.02;2.17;;;;;;;31.78;45.36;100954.56;3599920;80;25948;-77
2022/06/28 13:12:45;;;;;;;3.22;2.20;;;;;;;31.43;45.06;100964.69;3601486;80;99041;-77
2022/06/28 13:17:46;;;;;;;4.15;2.62;;;;;;;31.16;46.06;100951.78;3597733;81;99148;-77
2022/06/28 13:22:47;;;;;;;5.47;2.90;;;;;;;30.86;46.03;100946.27;3594011;81;99304;-77
2022/06/28 13:27:48;;;;;;;4.62;3.05;;;;;;;30.86;46.03;100946.27;3613354;80;99226;-78
2022/06/28 13:32:50;;;;;;;5.53;3.15;;;;;;;30.60;46.44;100956.84;3598541;80;99269;-78
2022/06/28 13:37:51;;;;;;;5.20;3.10;;;;;;;30.30;46.76;100949.80;3604766;80;32296;-78
2022/06/28 13:42:53;;;;;;;5.43;2.73;;;;;;;30.05;47.14;100959.05;3592871;81;99027;-78
2022/06/28 13:47:54;;;;;;;7.08;2.42;;;;;;;29.78;47.39;100958.69;3676192;78;99256;-78
2022/06/28 13:52:56;;;;;;;4.58;2.50;;;;;;;29.59;47.69;100956.00;3667786;78;99192;-78
2022/06/28 13:57:57;;;;;;;5.15;2.52;;;;;;;29.35;48.31;100946.84;3682970;78;99247;-78
2022/06/28 14:02:59;;;;;;;4.90;2.35;;;;;;;29.11;48.58;100952.69;3673737;78;99259;-79
2022/06/28 14:08:00;;;;;;;5.75;2.70;;;;;;;28.80;48.85;100952.39;3685994;79;99385;-79
2022/06/28 14:13:02;;;;;;;3.92;2.10;;;;;;;28.52;49.26;100949.72;3666470;78;98789;-79
2022/06/28 14:18:03;;;;;;;4.53;2.10;;;;;;;28.26;49.97;100953.54;3678260;78;98971;-79
2022/06/28 14:23:05;;;;;;;3.50;2.50;;;;;;;28.12;50.51;100957.91;3672342;78;99391;-78
2022/06/28 14:28:06;;;;;;;4.42;2.62;;;;;;;27.92;51.10;100956.98;3685366;78;99385;-80
2022/06/28 14:33:07;;;;;;;6.05;2.70;;;;;;;27.87;51.33;100949.16;3678114;78;99200;-78
2022/06/28 14:38:08;;;;;;;5.03;2.40;;;;;;;27.80;51.54;100953.13;3671404;78;99244;-78
2022/06/28 14:43:09;;;;;;;3.95;2.27;;;;;;;27.72;51.79;100956.77;3682031;78;98576;-78
2022/06/28 14:48:10;;;;;;;5.62;3.05;;;;;;;27.69;51.78;100952.09;3687466;78;99089;-79
2022/06/28 14:53:14;;;;;;;5.10;2.60;;;;;;;27.63;51.80;100945.53;3672570;78;98956;-78
2022/06/28 14:58:15;;;;;;;5.53;2.45;;;;;;;27.48;52.18;100953.95;3668561;78;99202;-79
2022/06/28 15:03:16;;;;;;;5.03;2.90;;;;;;;27.37;52.23;100952.29;3677499;78;98464;-78
2022/06/28 15:08:19;;;;;;;4.70;2.52;;;;;;;27.31;52.68;100942.88;3687278;78;99331;-78
2022/06/28 15:13:20;;;;;;;5.12;2.65;;;;;;;27.23;52.82;100933.81;3660895;78;98839;-78
2022/06/28 15:18:21;;;;;;;4.28;2.60;;;;;;;27.26;53.10;100933.66;3685894;78;99030;-78
2022/06/28 15:34:02;;;;;;;4.92;2.80;;;;;;;27.25;53.17;100915.77;3671997;80;99244;-80
2022/06/28 15:39:04;;;;;;;6.37;3.40;;;;;;;27.22;53.08;100913.88;3687405;78;98879;-78
2022/06/28 15:44:05;;;;;;;6.90;3.17;;;;;;;27.26;53.42;100901.77;3676262;79;99268;-79
2022/06/28 15:49:06;;;;;;;6.22;2.90;;;;;;;27.40;53.46;100895.42;3688863;78;32326;-78
2022/06/28 15:54:07;;;;;;;5.60;3.30;;;;;;;27.40;53.46;100895.42;3680560;78;99194;-78
2022/06/28 15:59:08;;;;;;;8.40;4.03;;;;;;;27.50;53.42;100889.83;3675673;78;98820;-79
2022/06/28 16:04:10;;;;;;;7.45;3.70;;;;;;;27.49;53.71;100894.72;3676985;78;99093;-80
2022/06/28 16:09:11;;;;;;;7.55;3.70;;;;;;;27.33;54.15;100892.31;3685371;78;99337;-79
2022/06/28 16:14:13;;;;;;;6.62;3.70;;;;;;;27.19;54.29;100896.48;3679231;78;98846;-79
2022/06/28 16:19:14;;;;;;;6.72;3.70;;;;;;;26.90;55.09;100901.30;3683938;78;31639;-79
2022/06/28 16:24:15;;;;;;;5.85;3.05;;;;;;;26.75;55.60;100894.75;3679673;78;98609;-79
2022/06/28 16:29:16;;;;;;;5.92;3.33;;;;;;;26.61;55.88;100889.00;3684937;78;99189;-79
2022/06/28 16:34:17;;;;;;;6.53;3.50;;;;;;;26.52;56.01;100891.20;3681162;78;99228;-79
2022/06/28 16:39:18;;;;;;;6.20;3.47;;;;;;;26.32;56.30;100892.98;3685590;78;98886;-79
2022/06/28 16:44:20;;;;;;;8.00;3.70;;;;;;;26.07;56.42;100889.88;3674140;78;98891;-80
2022/06/28 16:49:21;;;;;;;6.12;3.25;;;;;;;25.78;57.25;100885.94;3688325;78;31667;-78
2022/06/28 16:54:22;;;;;;;6.67;3.40;;;;;;;25.39;57.67;100865.06;3670616;78;99014;-79
2022/06/28 16:59:24;;;;;;;5.33;3.20;;;;;;;25.35;57.73;100880.56;3682672;79;99125;-77
2022/06/28 17:04:25;;;;;;;6.12;3.35;;;;;;;25.07;58.39;100889.53;3683682;78;98870;-77
2022/06/28 17:09:26;;;;;;;6.33;3.17;;;;;;;24.92;59.17;100892.78;3685606;78;99066;-78
2022/06/28 17:14:27;;;;;;;5.45;2.95;;;;;;;24.75;59.81;100883.64;3679719;78;98894;-78
2022/06/28 17:19:29;;;;;;;5.28;2.80;;;;;;;24.62;60.28;100880.91;3681232;78;31640;-78
2022/06/28 17:24:30;;;;;;;7.55;2.90;;;;;;;24.57;60.44;100897.60;3679394;80;98714;-78
2022/06/28 17:29:31;;;;;;;4.92;2.85;;;;;;;24.45;61.20;100897.84;3682306;78;99005;-78
2022/06/28 17:34:32;;;;;;;4.55;2.60;;;;;;;24.36;61.19;100904.03;3678159;79;98972;-78
2022/06/28 17:39:35;;;;;;;6.12;2.85;;;;;;;24.32;61.28;100918.85;3673801;79;99144;-78
2022/06/28 17:44:37;;;;;;;4.72;2.70;;;;;;;24.25;61.68;100916.31;3680159;78;99233;-78
2022/06/28 17:49:38;;;;;;;6.12;2.92;;;;;;;24.18;61.91;100927.20;3634805;80;32040;-77
2022/06/28 17:54:39;;;;;;;5.40;2.37;;;;;;;24.16;62.03;100921.25;3627110;80;98903;-78
2022/06/28 17:59:40;;;;;;;4.72;2.77;;;;;;;24.14;62.28;100922.31;3639021;80;98696;-78
2022/06/28 18:04:41;;;;;;;4.85;2.58;;;;;;;23.91;62.33;100933.20;3640246;80;98776;-78
2022/06/28 18:09:42;;;;;;;5.67;2.87;;;;;;;23.80;62.93;100935.58;3619987;80;99201;-78
2022/06/28 18:14:44;;;;;;;4.53;2.70;;;;;;;23.76;63.44;100934.94;3564842;81;30447;-78
2022/06/28 18:19:45;;;;;;;5.35;2.75;;;;;;;23.77;63.90;100935.09;3553209;80;99094;-78
2022/06/28 18:24:47;;;;;;;3.62;2.30;;;;;;;23.69;64.44;100930.34;3571050;81;98785;-78
2022/06/28 18:29:49;;;;;;;5.83;2.47;;;;;;;23.54;64.40;100925.03;3569696;80;108068;-78
2022/06/28 18:34:50;;;;;;;3.35;2.25;;;;;;;23.38;64.78;100920.95;3618044;81;99443;-78
2022/06/28 18:39:51;;;;;;;4.25;2.62;;;;;;;23.26;65.51;100913.34;3612074;80;99220;-78
2022/06/28 18:44:53;;;;;;;4.30;2.60;;;;;;;23.18;65.83;100914.03;3616159;80;31737;-78
2022/06/28 18:49:54;;;;;;;4.03;2.50;;;;;;;23.08;66.23;100910.91;3654926;79;98888;-78
2022/06/28 18:54:55;;;;;;;5.85;2.75;;;;;;;23.02;66.85;100923.95;3660976;79;98575;-78
2022/06/28 18:59:57;;;;;;;4.80;2.75;;;;;;;22.94;67.36;100933.84;3657675;79;98779;-78
2022/06/28 19:04:58;;;;;;;4.35;2.52;;;;;;;22.86;67.96;100936.69;3661922;79;98819;-77
2022/06/28 19:09:59;;;;;;;5.08;2.67;;;;;;;22.76;68.21;100936.39;3662827;79;98836;-78
2022/06/28 19:15:01;;;;;;;8.23;3.22;;;;;;;22.65;68.74;100943.74;3666358;79;29868;-78
2022/06/28 19:20:03;;;;;;;6.60;3.12;;;;;;;22.58;69.33;100945.37;3657703;79;98717;-78
2022/06/28 19:25:06;;;;;;;4.87;2.83;;;;;;;22.51;69.84;100957.41;3665803;79;98714;-78
2022/06/28 19:30:08;;;;;;;5.62;2.92;;;;;;;22.44;70.31;100973.83;3660717;78;98986;-78
2022/06/28 19:35:10;;;;;;;6.33;2.90;;;;;;;22.34;70.72;100974.88;3665014;79;98820;-78
2022/06/28 19:40:14;;;;;;;6.05;3.10;;;;;;;22.28;71.06;100986.47;3659433;79;98533;-78
2022/06/28 19:45:15;;;;;;;6.45;3.37;;;;;;;22.13;70.93;100985.28;3665489;79;98533;-78
2022/06/28 19:50:17;;;;;;;8.48;4.90;;;;;;;22.06;71.77;100988.92;3672549;79;98674;-78
2022/06/28 19:55:18;;;;;;;9.38;5.08;;;;;;;21.98;71.65;100988.31;3671238;79;99292;-78
2022/06/28 20:00:20;;;;;;;12.30;7.20;;;;;;;21.85;72.33;100986.05;3654380;79;99223;-78
2022/06/28 20:05:34;;;;;;;9.43;6.05;;;;;;;21.79;72.62;100993.41;3667134;79;98977;-79
2022/06/28 20:10:24;;;;;;;7.28;4.05;;;;;;;21.72;72.98;100995.00;3653135;79;98784;-79
2022/06/28 20:15:25;;;;;;;10.43;4.08;;;;;;;21.64;73.18;100982.34;3660913;79;31646;-78
2022/06/28 20:20:28;;;;;;;5.80;3.37;;;;;;;21.58;73.61;100988.31;3668942;79;98869;-79
2022/06/28 20:25:29;;;;;;;7.03;3.55;;;;;;;21.51;73.79;100983.48;3659049;79;98803;-78
2022/06/28 20:30:33;;;;;;;5.45;3.33;;;;;;;21.45;74.08;100999.25;3648134;78;98846;-78
2022/06/28 20:35:34;;;;;;;5.65;3.65;;;;;;;21.37;74.43;100996.45;3665198;79;99303;-77
2022/06/28 20:40:35;;;;;;;5.40;3.50;;;;;;;21.31;74.54;100994.77;3656303;79;99448;-79
2022/06/28 20:45:36;;;;;;;6.05;3.40;;;;;;;21.20;74.44;100992.06;3661802;79;32045;-79
2022/06/28 20:50:37;;;;;;;6.20;3.35;;;;;;;21.10;74.87;100991.06;3653562;78;99062;-79
2022/06/28 20:55:38;;;;;;;6.08;3.33;;;;;;;21.03;75.27;101000.27;3667959;79;99083;-79
2022/06/28 21:00:39;;;;;;;4.30;2.73;;;;;;;20.95;75.42;101008.02;3656932;79;98927;-79
2022/06/28 21:05:40;;;;;;;6.50;3.17;;;;;;;20.87;75.54;101004.38;3657515;79;98876;-79
2022/06/28 21:10:45;;;;;;;6.47;3.53;;;;;;;20.72;75.16;100997.51;3651549;79;99174;-80
2022/06/28 21:15:45;;;;;;;6.97;3.40;;;;;;;20.62;76.15;100995.12;3662687;79;31791;-79
2022/06/28 21:20:51;;;;;;;6.05;3.67;;;;;;;20.63;76.48;101001.48;3646868;78;99110;-79
2022/06/28 21:25:56;;;;;;;6.55;3.80;;;;;;;20.59;76.83;101002.96;3660026;79;99041;-79
2022/06/28 21:30:59;;;;;;;5.78;3.60;;;;;;;20.57;77.03;101003.21;3652117;79;99047;-79
2022/06/28 21:36:00;;;;;;;6.33;3.77;;;;;;;20.54;77.04;101008.28;3652425;79;98910;-79
2022/06/28 21:41:06;;;;;;;5.65;3.75;;;;;;;20.46;77.15;101010.44;3659978;80;98845;-79
2022/06/28 21:46:07;;;;;;;6.70;3.65;;;;;;;20.37;77.04;101013.00;3666695;79;26483;-79
2022/06/28 21:51:41;;;;;;;7.00;3.65;;;;;;;20.21;77.32;101013.53;3611693;80;98660;-79
2022/06/28 21:56:11;;;;;;;7.50;4.12;;;;;;;20.12;76.82;100995.12;3572161;80;99086;-79
2022/06/28 22:01:12;;;;;;;6.15;3.65;;;;;;;20.07;77.58;100994.22;3628112;80;99114;-80
2022/06/28 22:06:13;;;;;;;7.72;4.28;;;;;;;20.02;77.92;100989.89;3648438;79;99173;-80
2022/06/28 22:11:32;;;;;;;10.85;4.47;;;;;;;19.99;78.16;100992.76;3671232;79;98796;-79
2022/06/28 22:16:34;;;;;;;6.53;3.97;;;;;;;19.93;78.24;100986.05;3659021;79;99023;-79
2022/06/28 22:21:36;;;;;;;6.22;3.72;;;;;;;19.88;78.31;100983.16;3650331;79;31129;-79
2022/06/28 22:26:37;;;;;;;5.67;3.83;;;;;;;19.85;78.42;100983.22;3631468;79;98918;-79
2022/06/28 22:31:38;;;;;;;7.33;4.03;;;;;;;19.82;78.51;100984.06;3652490;80;99074;-80
2022/06/28 22:36:38;;;;;;;5.27;3.50;;;;;;;19.80;78.88;100990.69;3642038;80;98924;-79
2022/06/28 22:41:40;;;;;;;8.23;3.85;;;;;;;19.73;78.32;100988.80;3644981;79;99249;-79
2022/06/28 22:46:41;;;;;;;8.25;4.22;;;;;;;19.67;79.04;100982.75;3649665;80;99131;-80
2022/06/28 22:51:42;;;;;;;7.33;4.03;;;;;;;19.67;79.02;100978.56;3683421;78;30905;-79
2022/06/28 22:56:43;;;;;;;9.08;4.53;;;;;;;19.62;79.23;100971.44;3684688;79;99410;-79
2022/06/28 23:01:44;;;;;;;6.47;4.25;;;;;;;19.55;78.87;100961.80;3685503;78;98651;-79
2022/06/28 23:06:45;;;;;;;5.83;3.53;;;;;;;19.44;79.21;100957.59;3668495;78;99954;-79
2022/06/28 23:11:46;;;;;;;6.90;4.57;;;;;;;19.37;79.42;100972.48;3683427;78;98854;-79
2022/06/28 23:16:47;;;;;;;6.42;3.80;;;;;;;19.28;79.21;100960.25;3653820;77;98846;-79
2022/06/28 23:21:48;;;;;;;7.75;3.87;;;;;;;19.15;79.30;100948.87;3694155;78;25925;-79
2022/06/28 23:26:49;;;;;;;7.87;4.47;;;;;;;19.04;79.79;100942.67;3686908;78;98777;-79
2022/06/28 23:31:50;;;;;;;7.17;4.20;;;;;;;19.02;80.34;100947.09;3693752;79;99188;-79
2022/06/28 23:36:51;;;;;;;8.25;4.60;;;;;;;18.96;80.17;100948.16;3686123;79;99275;-79
2022/06/28 23:41:52;;;;;;;8.78;4.62;;;;;;;18.89;80.34;100939.09;3689887;78;98837;-79
2022/06/28 23:46:53;;;;;;;9.18;5.08;;;;;;;18.84;80.39;100936.78;3679928;78;99109;-79